Time;durP1;ratioP1;P1;durP2;ratioP2;P2;SDS_P1;SDS_P2;PMS_P1;PMS_P2;Temp;Humidity;BMP_temperature;BMP_pressure;BME280_temperature;BME280_humidity;BME280_pressure;Samples;Min_cycle;Max_cycle;Signal;HPM_P1;HPM_P2
2022/07/21 00:01:31;;;;;;;0.00;0.00;;;20.30;99.90;;;;;;4943613;29;20577;-81
2022/07/21 00:03:57;;;;;;;0.40;0.40;;;20.10;99.90;;;;;;4948028;29;20299;-81
2022/07/21 00:06:23;;;;;;;0.50;0.20;;;20.10;99.90;;;;;;4930656;29;20098;-80
2022/07/21 00:08:49;;;;;;;0.13;0.03;;;20.20;99.90;;;;;;4947845;29;20035;-82
2022/07/21 00:11:15;;;;;;;0.17;0.17;;;20.10;99.90;;;;;;4947014;29;20106;-82
2022/07/21 00:13:40;;;;;;;0.00;0.00;;;20.10;99.90;;;;;;4947962;29;20062;-81
2022/07/21 00:16:06;;;;;;;0.10;0.10;;;20.10;99.90;;;;;;4947819;29;20303;-80
2022/07/21 00:18:32;;;;;;;0.10;0.10;;;20.10;99.90;;;;;;4948213;28;20042;-80
2022/07/21 00:20:58;;;;;;;0.00;0.00;;;20.00;99.90;;;;;;4948190;29;20031;-81
2022/07/21 00:23:25;;;;;;;0.32;0.05;;;20.00;99.90;;;;;;4947953;29;20490;-81
2022/07/21 00:25:51;;;;;;;0.00;0.00;;;19.90;99.90;;;;;;4947777;29;20035;-81
2022/07/21 00:28:17;;;;;;;0.00;0.00;;;19.90;99.90;;;;;;4938147;29;20031;-81
2022/07/21 00:30:43;;;;;;;0.00;0.00;;;19.90;99.90;;;;;;4946515;29;20039;-80
2022/07/21 00:33:09;;;;;;;0.00;0.00;;;19.90;99.90;;;;;;4946847;29;20065;-80
2022/07/21 00:35:35;;;;;;;0.10;0.10;;;19.90;99.90;;;;;;4947210;29;20058;-81
2022/07/21 00:38:01;;;;;;;0.10;0.10;;;19.90;99.90;;;;;;4946630;29;20032;-81
2022/07/21 00:40:27;;;;;;;0.27;0.10;;;19.90;99.90;;;;;;4946691;29;20035;-80
2022/07/21 00:42:52;;;;;;;0.03;0.03;;;20.00;99.90;;;;;;4945576;29;20294;-80
2022/07/21 00:45:18;;;;;;;0.20;0.20;;;19.90;99.90;;;;;;4930064;29;20041;-80
2022/07/21 00:47:44;;;;;;;0.00;0.00;;;19.80;99.90;;;;;;4947226;29;20130;-80
2022/07/21 00:50:14;;;;;;;0.77;0.77;;;19.80;99.90;;;;;;4945792;29;20031;-80
2022/07/21 00:52:40;;;;;;;0.20;0.20;;;19.80;99.90;;;;;;4947356;29;20042;-81
2022/07/21 00:55:09;;;;;;;0.40;0.20;;;19.60;99.90;;;;;;4925741;29;20027;-82
2022/07/21 00:57:35;;;;;;;0.45;0.40;;;19.50;99.90;;;;;;4947173;29;20035;-82
2022/07/21 01:00:04;;;;;;;0.90;0.30;;;19.50;99.90;;;;;;4946557;29;20117;-81
2022/07/21 01:02:31;;;;;;;0.00;0.00;;;19.40;99.90;;;;;;4945998;28;20129;-82
2022/07/21 01:04:57;;;;;;;0.50;0.47;;;19.40;99.90;;;;;;4945793;29;20050;-82
2022/07/21 01:07:23;;;;;;;0.10;0.10;;;19.40;99.90;;;;;;4947060;29;20039;-81
2022/07/21 01:09:49;;;;;;;0.00;0.00;;;19.30;99.90;;;;;;4946738;29;20143;-82
2022/07/21 01:12:46;;;;;;;0.03;0.03;;;19.30;99.90;;;;;;4944839;29;20055;-88
2022/07/21 01:15:14;;;;;;;0.70;0.60;;;19.30;99.90;;;;;;4927498;29;20039;-83
2022/07/21 01:17:41;;;;;;;1.13;0.40;;;19.30;99.90;;;;;;4939530;28;20154;-81
2022/07/21 01:20:11;;;;;;;0.13;0.13;;;19.20;99.90;;;;;;4946222;29;20035;-81
2022/07/21 01:22:40;;;;;;;0.10;0.10;;;19.30;99.90;;;;;;4929757;29;20058;-81
2022/07/21 01:25:06;;;;;;;0.20;0.20;;;19.30;99.90;;;;;;4945690;29;20071;-84
2022/07/21 01:27:31;;;;;;;5.90;0.33;;;19.30;99.90;;;;;;4945676;29;20039;-84
2022/07/21 01:29:58;;;;;;;0.37;0.37;;;19.20;99.90;;;;;;4939673;29;20654;-85
2022/07/21 01:32:24;;;;;;;0.08;0.08;;;19.20;99.90;;;;;;4943134;29;20313;-84
2022/07/21 01:34:50;;;;;;;0.10;0.10;;;19.30;99.90;;;;;;4944996;29;20043;-84
2022/07/21 01:37:26;;;;;;;0.40;0.10;;;19.20;99.90;;;;;;4946207;29;20122;-83
2022/07/21 01:42:36;;;;;;;0.05;0.05;;;19.30;99.90;;;;;;4947144;29;20174;-81
2022/07/21 01:45:03;;;;;;;0.00;0.00;;;19.30;99.90;;;;;;4944591;29;20138;-84
2022/07/21 01:47:29;;;;;;;1.95;0.52;;;19.20;99.90;;;;;;4945017;29;20042;-84
2022/07/21 01:49:55;;;;;;;2.23;0.20;;;19.20;99.90;;;;;;4945625;29;20035;-85
2022/07/21 01:52:21;;;;;;;0.00;0.00;;;19.10;99.90;;;;;;4924653;29;20302;-83
2022/07/21 01:54:46;;;;;;;0.07;0.07;;;19.10;99.90;;;;;;4945318;29;20526;-85
2022/07/21 01:57:12;;;;;;;2.23;0.57;;;19.10;99.90;;;;;;4945868;28;20039;-84
2022/07/21 01:59:38;;;;;;;0.10;0.10;;;19.00;99.90;;;;;;4946151;29;20031;-85
2022/07/21 02:02:04;;;;;;;0.30;0.30;;;19.10;99.90;;;;;;4944056;29;20050;-89
2022/07/21 02:04:29;;;;;;;0.10;0.10;;;18.90;99.90;;;;;;4946372;29;20079;-88
2022/07/21 02:06:55;;;;;;;0.23;0.23;;;18.90;99.90;;;;;;4945716;29;20422;-84
2022/07/21 02:09:21;;;;;;;0.20;0.20;;;18.90;99.90;;;;;;4945977;29;20406;-85
2022/07/21 02:11:46;;;;;;;0.10;0.10;;;18.80;99.90;;;;;;4946291;29;20042;-83
2022/07/21 02:14:12;;;;;;;0.03;0.03;;;18.80;99.90;;;;;;4941059;29;20039;-83
2022/07/21 02:16:38;;;;;;;0.00;0.00;;;18.80;99.90;;;;;;4941060;29;20059;-83
2022/07/21 02:19:03;;;;;;;0.00;0.00;;;18.70;99.90;;;;;;4937003;28;20039;-85
2022/07/21 02:21:29;;;;;;;0.10;0.10;;;18.70;99.90;;;;;;4946941;29;20035;-85
2022/07/21 02:23:55;;;;;;;0.00;0.00;;;18.60;99.90;;;;;;4944282;29;20057;-84
2022/07/21 02:26:21;;;;;;;0.03;0.03;;;18.50;99.90;;;;;;4945732;29;20101;-84
2022/07/21 02:28:47;;;;;;;0.20;0.20;;;18.50;99.90;;;;;;4944543;29;20521;-84
2022/07/21 02:31:13;;;;;;;0.00;0.00;;;18.60;99.90;;;;;;4946472;29;20035;-84
2022/07/21 02:33:38;;;;;;;0.00;0.00;;;18.60;99.90;;;;;;4944971;29;20530;-83
2022/07/21 02:36:05;;;;;;;0.30;0.30;;;18.50;99.90;;;;;;4945606;29;20027;-85
2022/07/21 02:38:30;;;;;;;0.17;0.17;;;18.40;99.90;;;;;;4935464;28;20036;-83
2022/07/21 02:40:56;;;;;;;0.00;0.00;;;18.30;99.90;;;;;;4944199;29;20027;-83
2022/07/21 02:43:21;;;;;;;1.23;0.17;;;18.30;99.90;;;;;;4907695;29;20149;-83
2022/07/21 02:45:47;;;;;;;0.43;0.43;;;18.30;99.90;;;;;;4945707;29;20118;-83
2022/07/21 02:48:13;;;;;;;0.00;0.00;;;18.30;99.90;;;;;;4945181;29;20043;-83
2022/07/21 02:50:41;;;;;;;0.10;0.10;;;18.20;99.90;;;;;;4944464;29;20044;-83
2022/07/21 02:53:10;;;;;;;0.25;0.25;;;18.10;99.90;;;;;;4944112;29;20419;-83
2022/07/21 02:55:36;;;;;;;0.00;0.00;;;18.10;99.90;;;;;;4944109;28;20058;-81
2022/07/21 02:58:32;;;;;;;0.20;0.20;;;18.10;99.90;;;;;;4944184;29;20047;-80
2022/07/21 03:01:00;;;;;;;0.30;0.20;;;18.10;99.90;;;;;;4931794;29;20086;-83
2022/07/21 03:03:28;;;;;;;0.10;0.10;;;18.00;99.90;;;;;;4945133;29;20027;-83
2022/07/21 03:05:53;;;;;;;0.50;0.50;;;18.10;99.90;;;;;;4945419;29;20110;-83
2022/07/21 03:08:20;;;;;;;0.20;0.20;;;18.20;99.90;;;;;;4947575;28;20061;-83
2022/07/21 03:10:46;;;;;;;0.45;0.38;;;18.10;99.90;;;;;;4948983;29;20041;-82
2022/07/21 03:13:12;;;;;;;1.08;0.25;;;17.90;99.90;;;;;;4947708;29;20086;-82
2022/07/21 03:15:38;;;;;;;0.45;0.32;;;17.90;99.90;;;;;;4949839;29;20023;-81
2022/07/21 03:18:04;;;;;;;0.10;0.10;;;17.90;99.90;;;;;;4944466;28;20047;-81
2022/07/21 03:20:32;;;;;;;0.17;0.17;;;17.90;99.90;;;;;;4949511;29;20046;-82
2022/07/21 03:22:58;;;;;;;2.22;0.80;;;17.80;99.90;;;;;;4930665;29;20102;-81
2022/07/21 03:25:24;;;;;;;0.70;0.43;;;17.80;99.90;;;;;;4948439;29;20070;-81
2022/07/21 03:27:50;;;;;;;0.20;0.20;;;17.90;99.90;;;;;;4943665;29;20067;-81
2022/07/21 03:30:17;;;;;;;0.23;0.23;;;17.90;99.90;;;;;;4946519;29;20378;-80
2022/07/21 03:32:42;;;;;;;3.95;0.73;;;17.70;99.90;;;;;;4948153;29;20576;-79
2022/07/21 03:35:10;;;;;;;0.50;0.50;;;17.70;99.90;;;;;;4943591;29;20118;-83
2022/07/21 03:37:44;;;;;;;0.73;0.73;;;17.60;99.90;;;;;;4948770;29;20031;-82
2022/07/21 03:40:15;;;;;;;0.20;0.20;;;17.50;99.90;;;;;;4948054;29;20035;-81
2022/07/21 03:42:41;;;;;;;0.30;0.20;;;17.50;99.90;;;;;;4946682;29;20031;-85
2022/07/21 03:45:08;;;;;;;0.23;0.20;;;17.50;99.90;;;;;;4947016;29;20032;-84
2022/07/21 03:47:34;;;;;;;0.15;0.15;;;17.40;99.90;;;;;;4948377;29;20047;-90
2022/07/21 03:49:59;;;;;;;0.60;0.60;;;17.40;99.90;;;;;;4948070;29;20031;-86
2022/07/21 03:52:25;;;;;;;0.40;0.40;;;17.40;99.90;;;;;;4947449;29;20615;-85
2022/07/21 03:55:07;;;;;;;0.10;0.10;;;17.40;99.90;;;;;;4947460;29;20612;-84
2022/07/21 03:57:37;;;;;;;0.25;0.25;;;17.30;99.90;;;;;;4947453;29;20085;-84
2022/07/21 04:00:06;;;;;;;0.30;0.30;;;17.30;99.90;;;;;;4943357;29;20090;-85
2022/07/21 04:02:32;;;;;;;0.17;0.17;;;17.20;99.90;;;;;;4946901;29;20035;-84
2022/07/21 04:04:58;;;;;;;0.43;0.43;;;17.20;99.90;;;;;;4948422;29;20043;-84
2022/07/21 04:07:23;;;;;;;0.17;0.17;;;17.10;99.90;;;;;;4946152;29;20042;-83
2022/07/21 04:09:49;;;;;;;1.90;0.82;;;17.10;99.90;;;;;;4949593;29;20031;-84
2022/07/21 04:12:15;;;;;;;0.30;0.30;;;17.10;99.90;;;;;;4948613;29;20050;-85
2022/07/21 04:14:40;;;;;;;0.20;0.20;;;17.00;99.90;;;;;;4931193;29;20035;-83
2022/07/21 04:17:06;;;;;;;3.20;1.38;;;17.00;99.90;;;;;;4948666;29;20051;-83
2022/07/21 04:19:32;;;;;;;0.20;0.20;;;17.00;99.90;;;;;;4939013;28;20031;-83
2022/07/21 04:21:58;;;;;;;1.10;0.83;;;16.90;99.90;;;;;;4946841;29;20102;-83
2022/07/21 04:24:23;;;;;;;0.53;0.20;;;17.00;99.90;;;;;;4947490;29;20031;-84
2022/07/21 04:26:49;;;;;;;0.93;0.40;;;17.00;99.90;;;;;;4947522;29;20046;-81
2022/07/21 04:29:14;;;;;;;0.27;0.27;;;17.00;99.90;;;;;;4948011;29;20031;-84
2022/07/21 04:31:40;;;;;;;0.30;0.30;;;17.00;99.90;;;;;;4947565;29;20578;-82
2022/07/21 04:34:06;;;;;;;0.37;0.37;;;16.90;99.90;;;;;;4947016;28;20058;-83
2022/07/21 04:36:31;;;;;;;0.20;0.20;;;16.80;99.90;;;;;;4939467;29;20039;-81
2022/07/21 04:38:57;;;;;;;0.90;0.57;;;16.80;99.90;;;;;;4948022;29;20398;-83
2022/07/21 04:41:23;;;;;;;0.20;0.20;;;16.80;99.90;;;;;;4947657;29;20035;-83
2022/07/21 04:43:48;;;;;;;0.40;0.40;;;17.00;99.90;;;;;;4946746;29;20042;-83
2022/07/21 04:46:15;;;;;;;0.00;0.00;;;17.20;99.90;;;;;;4948486;29;20519;-83
2022/07/21 04:48:41;;;;;;;0.50;0.50;;;17.30;99.90;;;;;;4947076;29;20118;-83
2022/07/21 04:51:07;;;;;;;0.15;0.15;;;17.40;99.90;;;;;;4946021;29;20041;-81
2022/07/21 04:53:32;;;;;;;0.83;0.83;;;17.50;99.90;;;;;;4946754;29;20415;-81
2022/07/21 04:55:58;;;;;;;1.10;0.33;;;17.50;99.90;;;;;;4946902;29;20038;-81
2022/07/21 04:58:23;;;;;;;0.10;0.10;;;17.70;99.90;;;;;;4945915;29;20042;-82
2022/07/21 05:00:49;;;;;;;0.30;0.30;;;17.80;99.90;;;;;;4945698;29;20881;-81
2022/07/21 05:03:15;;;;;;;0.43;0.43;;;18.00;99.90;;;;;;4946085;29;20045;-86
2022/07/21 05:05:41;;;;;;;1.47;0.90;;;18.00;99.90;;;;;;4929093;29;20031;-80
2022/07/21 05:08:06;;;;;;;1.03;0.90;;;18.10;99.90;;;;;;4930385;29;20051;-82
2022/07/21 05:10:32;;;;;;;2.27;0.60;;;18.40;99.90;;;;;;4930826;29;20031;-85
2022/07/21 05:12:58;;;;;;;0.63;0.50;;;18.30;99.90;;;;;;4947322;29;20102;-84
2022/07/21 05:15:24;;;;;;;3.50;0.60;;;18.60;99.90;;;;;;4949267;29;20031;-91
2022/07/21 05:17:49;;;;;;;0.37;0.37;;;18.70;99.90;;;;;;4939768;28;20135;-89
2022/07/21 05:20:15;;;;;;;0.20;0.20;;;18.80;99.90;;;;;;4943696;29;20529;-88
2022/07/21 05:22:41;;;;;;;0.40;0.40;;;19.10;99.90;;;;;;4963759;28;20714;-88
2022/07/21 05:25:08;;;;;;;0.33;0.33;;;19.30;99.90;;;;;;4946737;29;20407;-87
2022/07/21 05:27:34;;;;;;;0.70;0.63;;;19.40;99.90;;;;;;4941228;28;20187;-86
2022/07/21 05:29:59;;;;;;;0.10;0.10;;;19.70;99.90;;;;;;4945546;28;20070;-86
2022/07/21 05:32:25;;;;;;;0.10;0.10;;;20.00;99.90;;;;;;4950457;29;20038;-92
2022/07/21 05:34:51;;;;;;;0.00;0.00;;;20.20;99.90;;;;;;4955970;29;20138;-95
2022/07/21 05:37:16;;;;;;;1.27;0.77;;;20.30;99.90;;;;;;4948523;29;20039;-87
2022/07/21 05:39:42;;;;;;;1.57;0.93;;;21.00;99.90;;;;;;4944386;29;20126;-88
2022/07/21 05:42:08;;;;;;;0.20;0.20;;;21.40;99.90;;;;;;4945468;29;20519;-84
2022/07/21 05:44:33;;;;;;;0.03;0.03;;;21.70;99.90;;;;;;4947362;28;20019;-80
2022/07/21 05:46:59;;;;;;;0.10;0.10;;;22.10;99.90;;;;;;4946832;29;20578;-78
2022/07/21 05:49:25;;;;;;;0.57;0.40;;;22.20;99.90;;;;;;4948178;29;20023;-80
2022/07/21 05:51:50;;;;;;;0.40;0.40;;;22.70;99.90;;;;;;4947445;29;20046;-81
2022/07/21 05:54:16;;;;;;;0.30;0.30;;;22.90;99.90;;;;;;4948004;29;20098;-81
2022/07/21 05:56:41;;;;;;;0.13;0.13;;;23.30;98.20;;;;;;4946924;29;20050;-79
2022/07/21 05:59:07;;;;;;;0.63;0.20;;;23.60;96.60;;;;;;4945124;29;20038;-79
2022/07/21 06:01:33;;;;;;;1.25;0.47;;;24.00;94.10;;;;;;4946017;28;20030;-81
2022/07/21 06:03:59;;;;;;;1.03;0.43;;;24.30;92.30;;;;;;4946469;29;20034;-80
2022/07/21 06:06:24;;;;;;;0.97;0.53;;;24.00;92.00;;;;;;4945461;29;20102;-79
2022/07/21 06:08:51;;;;;;;0.40;0.30;;;24.40;91.80;;;;;;4943053;28;20051;-79
2022/07/21 06:11:18;;;;;;;0.20;0.20;;;24.70;90.00;;;;;;4946554;29;20035;-78
2022/07/21 06:13:45;;;;;;;0.20;0.20;;;25.40;85.90;;;;;;4946637;29;20514;-79
2022/07/21 06:16:11;;;;;;;0.98;0.35;;;25.50;84.30;;;;;;4946985;28;20053;-78
2022/07/21 06:18:37;;;;;;;0.15;0.15;;;25.10;84.10;;;;;;4939484;28;20126;-78
2022/07/21 06:21:04;;;;;;;0.32;0.32;;;26.00;82.00;;;;;;4930416;29;20118;-79
2022/07/21 06:23:30;;;;;;;0.30;0.30;;;26.50;78.90;;;;;;4946740;29;20062;-78
2022/07/21 06:25:56;;;;;;;4.65;0.52;;;25.80;79.30;;;;;;4947885;29;20455;-78
2022/07/21 06:28:22;;;;;;;0.10;0.10;;;25.90;80.00;;;;;;4947940;29;20047;-79
2022/07/21 06:30:49;;;;;;;0.98;0.90;;;26.30;77.00;;;;;;4947767;29;20397;-78
2022/07/21 06:33:15;;;;;;;0.32;0.32;;;27.10;75.20;;;;;;4947634;29;20580;-79
2022/07/21 06:35:41;;;;;;;0.25;0.10;;;27.40;74.40;;;;;;4928962;29;20171;-78
2022/07/21 06:38:07;;;;;;;0.30;0.30;;;27.70;72.50;;;;;;4929709;29;20031;-79
2022/07/21 06:40:33;;;;;;;4.18;1.17;;;27.70;72.20;;;;;;4946051;29;20525;-78
2022/07/21 06:42:58;;;;;;;0.10;0.10;;;28.30;69.20;;;;;;4946211;29;20027;-78
2022/07/21 06:45:24;;;;;;;0.30;0.30;;;27.80;69.40;;;;;;4943001;29;20031;-79
2022/07/21 06:47:58;;;;;;;0.20;0.20;;;27.90;68.80;;;;;;4918681;29;20043;-80
2022/07/21 06:50:23;;;;;;;4.47;1.10;;;28.90;67.20;;;;;;4945973;29;20023;-80
2022/07/21 06:52:49;;;;;;;0.05;0.05;;;29.50;65.00;;;;;;4945131;29;20070;-80
2022/07/21 06:55:15;;;;;;;0.28;0.08;;;29.50;64.70;;;;;;4946028;29;20031;-79
2022/07/21 06:57:40;;;;;;;;;;;29.40;65.50;;;;;;4946091;29;20035;-79
2022/07/21 07:00:07;;;;;;;;;;;29.50;64.50;;;;;;4946508;29;19915;-79
2022/07/21 07:02:33;;;;;;;0.55;0.40;;;29.80;63.90;;;;;;4928633;29;19921;-78
2022/07/21 07:04:58;;;;;;;1.67;0.30;;;30.10;63.30;;;;;;4946248;29;20019;-79
2022/07/21 07:07:24;;;;;;;;;;;30.10;61.50;;;;;;4913621;29;20039;-79
2022/07/21 07:09:49;;;;;;;0.20;0.13;;;31.00;62.20;;;;;;4942855;29;19910;-79
2022/07/21 07:12:15;;;;;;;;;;;30.60;61.30;;;;;;4946420;29;20399;-79
2022/07/21 07:14:41;;;;;;;0.10;0.10;;;31.30;60.90;;;;;;4945523;29;20393;-79
2022/07/21 07:17:06;;;;;;;0.20;0.20;;;31.40;59.20;;;;;;4925719;29;20174;-79
2022/07/21 07:19:32;;;;;;;1.33;0.38;;;31.90;58.70;;;;;;4929033;28;20098;-79
2022/07/21 07:21:58;;;;;;;0.20;0.20;;;32.50;57.40;;;;;;4945355;28;20395;-80
2022/07/21 07:24:24;;;;;;;0.05;0.05;;;32.20;57.90;;;;;;4945932;28;20035;-79
2022/07/21 07:26:50;;;;;;;0.00;0.00;;;32.40;57.10;;;;;;4945045;29;20047;-80
2022/07/21 07:29:16;;;;;;;0.00;0.00;;;32.70;57.40;;;;;;4945228;28;20439;-80
2022/07/21 07:31:41;;;;;;;0.30;0.30;;;32.60;56.00;;;;;;4945586;28;20111;-80
2022/07/21 07:34:07;;;;;;;0.68;0.63;;;32.80;56.20;;;;;;4945671;28;20852;-80
2022/07/21 07:36:34;;;;;;;0.20;0.20;;;33.20;56.00;;;;;;4945335;29;20031;-80
2022/07/21 07:39:01;;;;;;;8.68;1.02;;;33.90;55.30;;;;;;4945776;28;20031;-79
2022/07/21 07:41:28;;;;;;;0.45;0.20;;;34.20;54.40;;;;;;4945580;28;20091;-79
2022/07/21 07:43:54;;;;;;;0.00;0.00;;;34.00;55.10;;;;;;4945537;28;20031;-79
2022/07/21 07:46:21;;;;;;;0.00;0.00;;;34.10;54.20;;;;;;4945159;28;20027;-79
2022/07/21 07:48:47;;;;;;;0.00;0.00;;;34.60;53.90;;;;;;4946624;28;20134;-84
2022/07/21 07:51:13;;;;;;;0.00;0.00;;;35.30;51.60;;;;;;4945777;28;20027;-83
2022/07/21 07:53:40;;;;;;;1.17;0.52;;;35.50;51.80;;;;;;4943857;28;20031;-83
2022/07/21 07:56:06;;;;;;;0.00;0.00;;;36.10;51.20;;;;;;4949206;28;20451;-84
2022/07/21 07:58:32;;;;;;;0.00;0.00;;;36.10;50.30;;;;;;4949110;28;20031;-84
2022/07/21 08:00:58;;;;;;;0.08;0.08;;;36.10;50.20;;;;;;4949232;28;20035;-83
2022/07/21 08:03:25;;;;;;;0.20;0.20;;;36.60;49.10;;;;;;4948064;29;20415;-82
2022/07/21 08:05:52;;;;;;;0.05;0.00;;;36.70;49.50;;;;;;4948313;28;20515;-83
2022/07/21 08:08:18;;;;;;;0.70;0.20;;;36.40;50.60;;;;;;4947541;28;20054;-83
2022/07/21 08:10:45;;;;;;;0.45;0.40;;;36.10;49.00;;;;;;4947272;28;20126;-82
2022/07/21 08:13:16;;;;;;;8.68;0.20;;;36.70;49.70;;;;;;4948298;28;20097;-82
2022/07/21 08:15:44;;;;;;;0.35;0.22;;;36.10;48.10;;;;;;4947466;29;20126;-83
2022/07/21 08:18:10;;;;;;;0.00;0.00;;;37.10;49.10;;;;;;4948862;28;20023;-83
2022/07/21 08:20:37;;;;;;;0.35;0.28;;;36.80;48.50;;;;;;4931707;29;20046;-83
2022/07/21 08:23:03;;;;;;;0.22;0.22;;;37.80;48.20;;;;;;4949057;29;20031;-83
2022/07/21 08:25:29;;;;;;;0.22;0.22;;;37.70;46.20;;;;;;4948390;29;20039;-83
2022/07/21 08:27:55;;;;;;;0.00;0.00;;;37.10;45.60;;;;;;4948961;29;20046;-83
2022/07/21 08:30:21;;;;;;;0.90;0.30;;;37.40;46.60;;;;;;4948660;29;20513;-84
2022/07/21 08:32:46;;;;;;;0.00;0.00;;;37.90;47.10;;;;;;4948705;29;20039;-83
2022/07/21 08:35:12;;;;;;;2.10;1.17;;;38.00;46.20;;;;;;4949286;29;20038;-83
2022/07/21 08:37:39;;;;;;;0.00;0.00;;;38.30;45.10;;;;;;4948969;29;20514;-83
2022/07/21 08:40:08;;;;;;;0.20;0.17;;;38.40;45.10;;;;;;4948868;29;20035;-83
2022/07/21 08:42:34;;;;;;;4.07;1.02;;;38.40;45.00;;;;;;4948645;29;20062;-83
2022/07/21 08:45:00;;;;;;;0.47;0.47;;;39.20;45.00;;;;;;4948821;29;20609;-83
2022/07/21 08:47:27;;;;;;;0.10;0.10;;;38.90;43.90;;;;;;4948710;29;20047;-83
2022/07/21 08:49:54;;;;;;;0.20;0.20;;;37.90;43.30;;;;;;4948827;29;20058;-83
2022/07/21 08:52:20;;;;;;;0.00;0.00;;;38.30;43.30;;;;;;4948394;29;20046;-84
2022/07/21 08:54:46;;;;;;;0.10;0.10;;;39.80;43.50;;;;;;4949107;29;20027;-83
2022/07/21 08:57:12;;;;;;;0.30;0.30;;;39.90;43.40;;;;;;4945200;28;20605;-83
2022/07/21 08:59:38;;;;;;;0.00;0.00;;;39.10;43.50;;;;;;4948861;29;20023;-83
2022/07/21 09:02:04;;;;;;;0.93;0.45;;;40.10;41.40;;;;;;4947962;29;20509;-84
2022/07/21 09:04:34;;;;;;;0.80;0.47;;;40.30;41.60;;;;;;4947888;28;20098;-83
2022/07/21 09:07:05;;;;;;;0.95;0.17;;;40.00;41.10;;;;;;4948543;29;20043;-83
2022/07/21 09:09:32;;;;;;;0.35;0.35;;;39.50;40.40;;;;;;4930949;29;20035;-83
2022/07/21 09:11:59;;;;;;;0.28;0.25;;;38.80;40.60;;;;;;4946929;29;20039;-83
2022/07/21 09:14:28;;;;;;;0.10;0.10;;;38.60;42.20;;;;;;4947474;29;20086;-83
2022/07/21 09:16:59;;;;;;;0.28;0.20;;;39.50;40.50;;;;;;4946854;29;20051;-83
2022/07/21 09:19:38;;;;;;;0.10;0.10;;;39.40;41.80;;;;;;4947047;28;20035;-83
2022/07/21 09:22:11;;;;;;;0.17;0.17;;;39.00;41.60;;;;;;4946499;29;20023;-83
2022/07/21 09:24:40;;;;;;;0.28;0.28;;;39.60;42.90;;;;;;4947255;29;20031;-83
2022/07/21 09:27:14;;;;;;;0.25;0.25;;;40.70;42.20;;;;;;4946567;29;20039;-83
2022/07/21 09:29:49;;;;;;;0.03;0.03;;;40.80;40.20;;;;;;4947329;29;20054;-83
2022/07/21 09:32:25;;;;;;;0.10;0.03;;;38.10;40.50;;;;;;4946852;29;20031;-83
2022/07/21 09:35:04;;;;;;;0.03;0.03;;;39.40;42.30;;;;;;4946843;29;20035;-83
2022/07/21 09:37:31;;;;;;;0.25;0.10;;;40.10;40.90;;;;;;4946748;29;20069;-83
2022/07/21 09:40:00;;;;;;;0.32;0.32;;;39.30;40.80;;;;;;4946715;29;20491;-83
2022/07/21 09:42:31;;;;;;;0.30;0.30;;;39.50;40.70;;;;;;4947300;29;20035;-82
2022/07/21 09:45:09;;;;;;;0.52;0.40;;;39.50;40.70;;;;;;4947643;29;20066;-82
2022/07/21 09:47:38;;;;;;;0.25;0.25;;;39.70;40.20;;;;;;4947418;29;20043;-82
2022/07/21 09:50:05;;;;;;;0.47;0.47;;;40.40;39.10;;;;;;4947655;29;20099;-82
2022/07/21 09:52:33;;;;;;;0.10;0.10;;;41.40;38.50;;;;;;4947060;29;20063;-82
2022/07/21 09:55:02;;;;;;;0.30;0.30;;;41.30;37.80;;;;;;4946121;29;20494;-82
2022/07/21 09:57:28;;;;;;;1.08;0.57;;;41.00;38.10;;;;;;4947118;28;20031;-82
2022/07/21 09:59:54;;;;;;;0.10;0.10;;;39.30;38.10;;;;;;4943811;29;20031;-83
2022/07/21 10:02:26;;;;;;;0.15;0.10;;;40.20;40.20;;;;;;4946920;29;20118;-82
2022/07/21 10:04:59;;;;;;;1.17;0.63;;;41.80;38.90;;;;;;4947031;29;20032;-82
2022/07/21 10:07:27;;;;;;;0.00;0.00;;;41.20;38.00;;;;;;4947305;29;20047;-82
2022/07/21 10:09:53;;;;;;;0.68;0.28;;;40.80;38.30;;;;;;4947629;29;20027;-83
2022/07/21 10:12:20;;;;;;;0.43;0.38;;;40.70;37.80;;;;;;4947088;29;20070;-83
2022/07/21 10:14:46;;;;;;;0.38;0.38;;;39.70;38.20;;;;;;4946913;29;20031;-82
2022/07/21 10:17:30;;;;;;;0.13;0.10;;;41.30;39.10;;;;;;4946470;28;20106;-85
2022/07/21 10:20:15;;;;;;;0.25;0.25;;;39.80;37.50;;;;;;4944406;29;20029;-82
2022/07/21 10:22:53;;;;;;;0.10;0.10;;;39.50;38.80;;;;;;4945036;29;20101;-82
2022/07/21 10:25:21;;;;;;;0.57;0.55;;;39.90;37.30;;;;;;4929193;29;20027;-82
2022/07/21 10:28:13;;;;;;;0.13;0.13;;;38.90;38.40;;;;;;4946417;29;20042;-87
2022/07/21 10:30:49;;;;;;;0.93;0.57;;;40.70;37.70;;;;;;4946593;29;20035;-87
2022/07/21 10:33:20;;;;;;;0.57;0.50;;;39.60;38.20;;;;;;4947092;29;20118;-84
2022/07/21 10:35:48;;;;;;;0.65;0.50;;;39.00;39.30;;;;;;4929663;29;20035;-85
2022/07/21 10:38:28;;;;;;;0.10;0.10;;;37.70;39.20;;;;;;4946384;29;20537;-84
2022/07/21 10:40:55;;;;;;;1.05;0.75;;;35.10;40.70;;;;;;4945445;29;20059;-83
2022/07/21 10:43:23;;;;;;;0.30;0.20;;;33.80;41.90;;;;;;4945258;29;20031;-85
2022/07/21 10:45:50;;;;;;;0.95;0.65;;;33.80;43.50;;;;;;4944712;29;20085;-85
2022/07/21 10:48:37;;;;;;;0.40;0.40;;;33.80;43.20;;;;;;4945205;29;21039;-81
2022/07/21 10:51:14;;;;;;;0.60;0.60;;;33.70;42.90;;;;;;4946224;29;20521;-79
2022/07/21 10:53:40;;;;;;;0.30;0.22;;;33.20;44.60;;;;;;4943661;29;20581;-80
2022/07/21 10:56:07;;;;;;;0.20;0.20;;;33.50;44.10;;;;;;4946256;29;20027;-79
2022/07/21 10:58:34;;;;;;;0.50;0.50;;;33.40;43.80;;;;;;4929725;29;20533;-79
2022/07/21 11:01:05;;;;;;;0.88;0.88;;;32.60;44.10;;;;;;4928649;29;20118;-79
2022/07/21 11:03:45;;;;;;;0.20;0.20;;;32.60;44.80;;;;;;4945739;29;20114;-86
2022/07/21 11:06:21;;;;;;;1.20;0.63;;;32.20;45.20;;;;;;4945362;29;20026;-79
2022/07/21 11:08:47;;;;;;;0.25;0.22;;;32.10;45.90;;;;;;4946608;29;20030;-79
2022/07/21 11:11:19;;;;;;;0.30;0.30;;;32.20;45.50;;;;;;4945117;29;20035;-79
2022/07/21 11:14:07;;;;;;;0.63;0.52;;;32.00;45.40;;;;;;4945817;29;20138;-79
2022/07/21 11:16:46;;;;;;;0.50;0.50;;;31.80;46.30;;;;;;4943552;28;20055;-79
2022/07/21 11:19:40;;;;;;;0.28;0.28;;;31.60;47.20;;;;;;4947170;28;20023;-78
2022/07/21 11:22:15;;;;;;;1.55;0.60;;;31.30;46.10;;;;;;4945521;29;20813;-79
2022/07/21 11:24:47;;;;;;;0.55;0.40;;;31.30;46.70;;;;;;4945697;29;20027;-78
2022/07/21 11:27:19;;;;;;;0.30;0.28;;;31.40;46.20;;;;;;4942782;29;20162;-78
2022/07/21 11:29:46;;;;;;;0.22;0.22;;;31.40;46.40;;;;;;4947857;28;20037;-79
2022/07/21 11:32:14;;;;;;;1.05;0.43;;;31.20;47.00;;;;;;4949483;29;20498;-79
2022/07/21 11:34:45;;;;;;;0.30;0.30;;;31.00;45.50;;;;;;4950022;29;20024;-80
2022/07/21 11:37:13;;;;;;;0.65;0.65;;;31.10;45.60;;;;;;4950096;29;20031;-79
2022/07/21 11:39:38;;;;;;;0.60;0.35;;;31.00;46.50;;;;;;4950165;29;20027;-78
2022/07/21 11:42:15;;;;;;;0.17;0.17;;;31.00;47.20;;;;;;4949912;29;20108;-80
2022/07/21 11:44:41;;;;;;;0.40;0.17;;;31.20;47.00;;;;;;4950089;29;20040;-79
2022/07/21 11:47:12;;;;;;;0.40;0.40;;;31.50;48.30;;;;;;4931294;29;20430;-83
2022/07/21 11:49:38;;;;;;;0.80;0.80;;;31.40;46.80;;;;;;4948541;29;20557;-86
2022/07/21 11:52:07;;;;;;;7.03;1.08;;;31.10;47.60;;;;;;4931408;29;20030;-86
2022/07/21 11:54:37;;;;;;;5.47;1.00;;;30.90;45.50;;;;;;4948708;29;20027;-87
2022/07/21 11:57:06;;;;;;;0.30;0.30;;;31.00;47.40;;;;;;4949146;28;20438;-86
2022/07/21 11:59:32;;;;;;;0.50;0.50;;;31.20;46.90;;;;;;4949309;29;20055;-87
2022/07/21 12:02:02;;;;;;;0.80;0.70;;;30.60;46.10;;;;;;4949384;29;20566;-86
2022/07/21 12:04:33;;;;;;;1.95;0.95;;;30.80;47.80;;;;;;4948506;29;20410;-86
2022/07/21 12:06:59;;;;;;;0.30;0.30;;;31.10;47.90;;;;;;4948819;29;20125;-86
2022/07/21 12:09:26;;;;;;;0.60;0.60;;;30.90;46.40;;;;;;4949161;29;20035;-86
2022/07/21 12:11:52;;;;;;;0.30;0.30;;;30.60;46.60;;;;;;4949213;29;20082;-87
2022/07/21 12:14:18;;;;;;;;;;;30.70;46.90;;;;;;4950570;29;20094;-86
2022/07/21 12:16:53;;;;;;;1.27;0.82;;;30.50;48.10;;;;;;4949664;29;20309;-86
2022/07/21 12:19:19;;;;;;;0.47;0.35;;;30.60;47.60;;;;;;4948366;28;20511;-88
2022/07/21 12:21:50;;;;;;;0.85;0.55;;;30.50;46.80;;;;;;4932906;29;20142;-86
2022/07/21 12:24:21;;;;;;;0.47;0.38;;;30.50;46.90;;;;;;4933007;29;20414;-87
2022/07/21 12:26:49;;;;;;;0.40;0.40;;;30.40;48.30;;;;;;4951982;29;20089;-88
2022/07/21 12:29:30;;;;;;;0.30;0.10;;;30.80;48.20;;;;;;4950715;29;20031;-87
2022/07/21 12:31:56;;;;;;;1.35;0.55;;;30.90;47.60;;;;;;4949831;29;20043;-87
2022/07/21 12:34:24;;;;;;;;;;;30.80;46.70;;;;;;4950194;29;20106;-87
2022/07/21 12:36:50;;;;;;;0.63;0.55;;;30.80;46.70;;;;;;4949782;29;19914;-88
2022/07/21 12:42:30;;;;;;;0.82;0.73;;;30.60;46.90;;;;;;4949292;29;20422;-86
2022/07/21 12:44:56;;;;;;;1.80;0.40;;;30.50;47.70;;;;;;4948704;29;20031;-86
2022/07/21 12:47:23;;;;;;;1.10;0.57;;;30.50;48.50;;;;;;4930539;29;20078;-83
2022/07/21 12:49:53;;;;;;;;;;;30.40;46.60;;;;;;4949439;29;20038;-83
2022/07/21 12:52:19;;;;;;;0.10;0.10;;;30.40;47.90;;;;;;4949343;29;19914;-83
2022/07/21 12:54:47;;;;;;;0.57;0.57;;;30.30;47.20;;;;;;4947849;29;20399;-87
2022/07/21 12:57:16;;;;;;;0.50;0.50;;;30.40;47.30;;;;;;4930699;29;20047;-84